This is the latest recevied weather packets stored in our database for station/object CA2JAT-13. If no packets are shown the sender has not sent any weather packets the latest 10 day(s).
| Time | Temp. | Humidity | Pressure | Rain* | Wind** | Luminosity | Snow |
|---|---|---|---|---|---|---|---|
| 1788429296 | 10.56° C | 85% | 1021.1 hPa | 0 mm | - | 0 W/m² | - |
| 1788427494 | 10.56° C | 87% | 1021.1 hPa | 0 mm | - | 0 W/m² | - |
| 1788423889 | 10.56° C | 90% | 1021.5 hPa | 0 mm | - | 0 W/m² | - |
| 1788422087 | 11.11° C | 84% | 1021.6 hPa | 0 mm | - | 0 W/m² | - |
| 1788420284 | 11.11° C | 86% | 1021.5 hPa | 0 mm | - | 0 W/m² | - |
| 1788418482 | 11.11° C | 88% | 1021.6 hPa | 0 mm | - | 0 W/m² | - |
| 1788416679 | 11.11° C | 85% | 1021.6 hPa | 0 mm | - | 0 W/m² | - |
| 1788414877 | 11.67° C | 84% | 1021.6 hPa | 0 mm | - | 0 W/m² | - |
| 1788413075 | 11.67° C | 85% | 1021.7 hPa | 0 mm | - | 0 W/m² | - |
| 1788411271 | 11.67° C | 86% | 1021.6 hPa | 0 mm | - | 0 W/m² | - |
| 1788409469 | 11.67° C | 87% | 1021.3 hPa | 0 mm | - | 0 W/m² | - |
| 1788407667 | 12.22° C | 83% | 1021.3 hPa | 0 mm | - | 0 W/m² | - |
| 1788405865 | 12.22° C | 80% | 1021.6 hPa | 0 mm | - | 0 W/m² | - |
| 1788404062 | 13.33° C | 76% | 1021.5 hPa | 0 mm | - | 0 W/m² | - |
| 1788402260 | 13.89° C | 76% | 1021.3 hPa | 0 mm | - | 0 W/m² | - |
| 1788378779 | 23.89° C | 32% | 1016.1 hPa | 0 mm | - | 299 W/m² | - |
| 1788376976 | 24.44° C | 31% | 1016.4 hPa | 0 mm | - | 309 W/m² | - |
| 1788373372 | 25.56° C | 24% | 1016.2 hPa | 0 mm | - | 383 W/m² | - |
| 1788364360 | 23.89° C | 24% | 1017.7 hPa | 0 mm | - | 498 W/m² | - |
| 1788358953 | 21.11° C | 37% | 1018.2 hPa | 0 mm | - | 655 W/m² | - |
| 1788355298 | 17.22° C | 47% | 1018.7 hPa | 0 mm | - | 272 W/m² | - |
| 1788351693 | 11.67° C | 72% | 1019.2 hPa | 0 mm | - | 180 W/m² | - |
| 1788348088 | 10.56° C | 78% | 1019.3 hPa | 0 mm | - | 0 W/m² | - |
| 1788346285 | 10.56° C | 78% | 1019.4 hPa | 0 mm | - | 0 W/m² | - |
| 1788344483 | 11.11° C | 73% | 1019 hPa | 0 mm | - | 0 W/m² | - |
* Rain latest hour (hover to see other rain measurements)
** Current wind speed in m/s (hover to see current wind gust speed)